Weather at Blairmore (Crowsnest Pass Health Centre) Heliport

Public forecast

Using degrees Celsius for public forecast. Weather courtesy of forecast.io.

Closest aviation weather report (METAR) to Blairmore (Crowsnest Pass Health Centre) Heliport

Closest report is Pincher Creek Airport, 18.8 nm (34.8 km) ESE.

2024/05/21 12:00 (retrieved 48 minutes ago)

CZPC 211200Z AUTO 29004KT 230V330 9SM BKN110 04/01 A2991 RMK SLP151

Closest aviation forecast (TAF) to Blairmore (Crowsnest Pass Health Centre) Heliport

Closest forecast is Cranbrook/Canadian Rockies International Airport, 51.5 nm (95.5 km) W.

2024/05/21 13:42 (retrieved 0 seconds ago)

TAF CYXC 211240Z 2113/2201 VRB03KT P6SM SCT060 SCT100 BECMG 2116/2118 14010KT SCT090 BKN120 FM212000 20015KT P6SM BKN090 RMK NXT FCST BY 211900Z